sensor_id;sensor_type;location;lat;lon;timestamp;pressure;altitude;pressure_sealevel;temperature;humidity
55032;BME280;40928;51.076;7.950;2023-07-20T00:01:46;96889.59;;;14.20;100.00
55032;BME280;40928;51.076;7.950;2023-07-20T00:04:13;96890.66;;;14.19;100.00
55032;BME280;40928;51.076;7.950;2023-07-20T00:06:39;96893.59;;;14.18;100.00
55032;BME280;40928;51.076;7.950;2023-07-20T00:09:08;96888.22;;;14.18;100.00
55032;BME280;40928;51.076;7.950;2023-07-20T00:11:36;96886.63;;;14.16;100.00
55032;BME280;40928;51.076;7.950;2023-07-20T00:14:06;96886.09;;;14.14;100.00
55032;BME280;40928;51.076;7.950;2023-07-20T00:16:32;96879.09;;;14.13;100.00
55032;BME280;40928;51.076;7.950;2023-07-20T00:18:58;96882.59;;;14.14;100.00
55032;BME280;40928;51.076;7.950;2023-07-20T00:21:23;96877.22;;;14.14;100.00
55032;BME280;40928;51.076;7.950;2023-07-20T00:23:49;96881.78;;;14.13;100.00
55032;BME280;40928;51.076;7.950;2023-07-20T00:26:15;96883.94;;;14.11;100.00
55032;BME280;40928;51.076;7.950;2023-07-20T00:28:40;96883.41;;;14.14;100.00
55032;BME280;40928;51.076;7.950;2023-07-20T00:31:06;96870.53;;;14.16;100.00
55032;BME280;40928;51.076;7.950;2023-07-20T00:33:32;96865.69;;;14.13;100.00
55032;BME280;40928;51.076;7.950;2023-07-20T00:36:01;96870.22;;;14.13;100.00
55032;BME280;40928;51.076;7.950;2023-07-20T00:38:27;96863.53;;;14.15;100.00
55032;BME280;40928;51.076;7.950;2023-07-20T00:40:53;96865.16;;;14.16;100.00
55032;BME280;40928;51.076;7.950;2023-07-20T00:43:18;96869.44;;;14.18;100.00
55032;BME280;40928;51.076;7.950;2023-07-20T00:45:44;96867.28;;;14.20;100.00
55032;BME280;40928;51.076;7.950;2023-07-20T00:48:10;96865.41;;;14.15;100.00
55032;BME280;40928;51.076;7.950;2023-07-20T00:50:36;96862.72;;;14.15;100.00
55032;BME280;40928;51.076;7.950;2023-07-20T00:53:04;96868.34;;;14.19;100.00
55032;BME280;40928;51.076;7.950;2023-07-20T00:55:32;96870.53;;;14.16;100.00
55032;BME280;40928;51.076;7.950;2023-07-20T00:57:59;96871.59;;;14.15;100.00
55032;BME280;40928;51.076;7.950;2023-07-20T01:00:24;96874.00;;;14.17;100.00
55032;BME280;40928;51.076;7.950;2023-07-20T01:02:51;96870.53;;;14.16;100.00
55032;BME280;40928;51.076;7.950;2023-07-20T01:05:16;96875.34;;;14.20;100.00
55032;BME280;40928;51.076;7.950;2023-07-20T01:08:07;96879.09;;;14.19;100.00
55032;BME280;40928;51.076;7.950;2023-07-20T01:10:41;96873.47;;;14.20;100.00
55032;BME280;40928;51.076;7.950;2023-07-20T01:13:10;96875.09;;;14.21;100.00
55032;BME280;40928;51.076;7.950;2023-07-20T01:15:37;96881.00;;;14.23;100.00
55032;BME280;40928;51.076;7.950;2023-07-20T01:18:03;96882.09;;;14.22;100.00
55032;BME280;40928;51.076;7.950;2023-07-20T01:20:31;96879.41;;;14.22;100.00
55032;BME280;40928;51.076;7.950;2023-07-20T01:26:55;96870.53;;;14.16;100.00
55032;BME280;40928;51.076;7.950;2023-07-20T01:31:39;96860.31;;;14.13;100.00
55032;BME280;40928;51.076;7.950;2023-07-20T01:34:17;96860.84;;;14.10;100.00
55032;BME280;40928;51.076;7.950;2023-07-20T01:36:45;96868.34;;;14.08;100.00
55032;BME280;40928;51.076;7.950;2023-07-20T01:39:11;96866.72;;;14.07;100.00
55032;BME280;40928;51.076;7.950;2023-07-20T01:41:37;96873.69;;;14.03;100.00
55032;BME280;40928;51.076;7.950;2023-07-20T01:44:04;96868.34;;;13.98;100.00
55032;BME280;40928;51.076;7.950;2023-07-20T01:46:30;96873.69;;;13.98;100.00
55032;BME280;40928;51.076;7.950;2023-07-20T01:48:56;96865.09;;;13.96;100.00
55032;BME280;40928;51.076;7.950;2023-07-20T01:51:21;96873.69;;;13.93;100.00
55032;BME280;40928;51.076;7.950;2023-07-20T01:53:48;96871.25;;;13.91;100.00
55032;BME280;40928;51.076;7.950;2023-07-20T01:56:13;96874.75;;;13.92;100.00
55032;BME280;40928;51.076;7.950;2023-07-20T01:58:39;96871.78;;;13.88;100.00
55032;BME280;40928;51.076;7.950;2023-07-20T02:01:05;96870.97;;;13.88;100.00
55032;BME280;40928;51.076;7.950;2023-07-20T02:03:30;96860.22;;;13.88;100.00
55032;BME280;40928;51.076;7.950;2023-07-20T02:05:56;96861.84;;;13.89;100.00
55032;BME280;40928;51.076;7.950;2023-07-20T02:08:24;96868.28;;;13.88;100.00
55032;BME280;40928;51.076;7.950;2023-07-20T02:10:51;96869.91;;;13.83;100.00
55032;BME280;40928;51.076;7.950;2023-07-20T02:13:17;96865.31;;;13.79;100.00
55032;BME280;40928;51.076;7.950;2023-07-20T02:15:42;96880.03;;;13.71;100.00
55032;BME280;40928;51.076;7.950;2023-07-20T02:18:08;96863.38;;;13.64;100.00
55032;BME280;40928;51.076;7.950;2023-07-20T02:20:43;96863.66;;;13.62;100.00
55032;BME280;40928;51.076;7.950;2023-07-20T02:23:09;96858.53;;;13.61;100.00
55032;BME280;40928;51.076;7.950;2023-07-20T02:25:35;96868.72;;;13.59;100.00
55032;BME280;40928;51.076;7.950;2023-07-20T02:28:00;96863.88;;;13.55;100.00
55032;BME280;40928;51.076;7.950;2023-07-20T02:30:26;96864.13;;;13.54;100.00
55032;BME280;40928;51.076;7.950;2023-07-20T02:32:52;96869.50;;;13.54;100.00
55032;BME280;40928;51.076;7.950;2023-07-20T02:35:18;96868.41;;;13.50;100.00
55032;BME280;40928;51.076;7.950;2023-07-20T02:37:44;96863.31;;;13.48;100.00
55032;BME280;40928;51.076;7.950;2023-07-20T02:40:10;96868.97;;;13.47;100.00
55032;BME280;40928;51.076;7.950;2023-07-20T02:42:36;96863.28;;;13.43;100.00
55032;BME280;40928;51.076;7.950;2023-07-20T02:45:03;96859.25;;;13.40;100.00
55032;BME280;40928;51.076;7.950;2023-07-20T02:47:29;96863.50;;;13.36;100.00
55032;BME280;40928;51.076;7.950;2023-07-20T02:49:55;96861.31;;;13.28;100.00
55032;BME280;40928;51.076;7.950;2023-07-20T02:52:21;96861.56;;;13.21;100.00
55032;BME280;40928;51.076;7.950;2023-07-20T02:54:49;96864.47;;;13.20;100.00
55032;BME280;40928;51.076;7.950;2023-07-20T02:57:15;96862.06;;;13.18;100.00
55032;BME280;40928;51.076;7.950;2023-07-20T02:59:40;96859.34;;;13.13;100.00
55032;BME280;40928;51.076;7.950;2023-07-20T03:02:06;96859.84;;;13.10;100.00
55032;BME280;40928;51.076;7.950;2023-07-20T03:04:35;96858.78;;;13.06;100.00
55032;BME280;40928;51.076;7.950;2023-07-20T03:07:04;96861.16;;;13.02;100.00
55032;BME280;40928;51.076;7.950;2023-07-20T03:09:31;96861.94;;;12.98;100.00
55032;BME280;40928;51.076;7.950;2023-07-20T03:11:57;96863.50;;;12.93;100.00
55032;BME280;40928;51.076;7.950;2023-07-20T03:14:23;96860.81;;;12.93;100.00
55032;BME280;40928;51.076;7.950;2023-07-20T03:16:49;96860.59;;;12.95;100.00
55032;BME280;40928;51.076;7.950;2023-07-20T03:19:15;96862.44;;;12.94;100.00
55032;BME280;40928;51.076;7.950;2023-07-20T03:21:42;96862.19;;;12.96;100.00
55032;BME280;40928;51.076;7.950;2023-07-20T03:24:08;96868.63;;;12.95;100.00
55032;BME280;40928;51.076;7.950;2023-07-20T03:26:37;96864.06;;;12.95;100.00
55032;BME280;40928;51.076;7.950;2023-07-20T03:29:04;96864.31;;;12.94;100.00
55032;BME280;40928;51.076;7.950;2023-07-20T03:31:32;96866.72;;;12.95;100.00
55032;BME280;40928;51.076;7.950;2023-07-20T03:33:57;96865.13;;;12.94;100.00
55032;BME280;40928;51.076;7.950;2023-07-20T03:36:23;96873.72;;;12.97;100.00
55032;BME280;40928;51.076;7.950;2023-07-20T03:38:50;96873.75;;;13.02;100.00
55032;BME280;40928;51.076;7.950;2023-07-20T03:41:15;96872.97;;;13.06;100.00
55032;BME280;40928;51.076;7.950;2023-07-20T03:43:42;96876.47;;;13.07;100.00
55032;BME280;40928;51.076;7.950;2023-07-20T03:46:07;96879.16;;;13.12;100.00
55032;BME280;40928;51.076;7.950;2023-07-20T03:48:33;96872.50;;;13.15;100.00
55032;BME280;40928;51.076;7.950;2023-07-20T03:50:59;96877.03;;;13.14;100.00
55032;BME280;40928;51.076;7.950;2023-07-20T03:53:26;96878.66;;;13.15;100.00
55032;BME280;40928;51.076;7.950;2023-07-20T03:55:52;96884.06;;;13.20;100.00
55032;BME280;40928;51.076;7.950;2023-07-20T03:58:19;96874.97;;;13.27;100.00
55032;BME280;40928;51.076;7.950;2023-07-20T04:00:46;96882.53;;;13.35;100.00
55032;BME280;40928;51.076;7.950;2023-07-20T04:03:13;96877.44;;;13.38;100.00
55032;BME280;40928;51.076;7.950;2023-07-20T04:05:38;96886.91;;;13.46;100.00
55032;BME280;40928;51.076;7.950;2023-07-20T04:08:04;96883.72;;;13.49;100.00
55032;BME280;40928;51.076;7.950;2023-07-20T04:10:30;96889.88;;;13.50;100.00
55032;BME280;40928;51.076;7.950;2023-07-20T04:12:56;96886.66;;;13.53;100.00
55032;BME280;40928;51.076;7.950;2023-07-20T04:15:28;96891.25;;;13.58;100.00
55032;BME280;40928;51.076;7.950;2023-07-20T04:17:53;96889.66;;;13.62;100.00
55032;BME280;40928;51.076;7.950;2023-07-20T04:20:21;96890.22;;;13.64;100.00
55032;BME280;40928;51.076;7.950;2023-07-20T04:22:49;96886.72;;;13.63;100.00
55032;BME280;40928;51.076;7.950;2023-07-20T04:25:16;96888.09;;;13.71;100.00
55032;BME280;40928;51.076;7.950;2023-07-20T04:27:42;96899.13;;;13.75;100.00
55032;BME280;40928;51.076;7.950;2023-07-20T04:30:10;96888.09;;;13.76;100.00
55032;BME280;40928;51.076;7.950;2023-07-20T04:32:38;96884.09;;;13.79;100.00
55032;BME280;40928;51.076;7.950;2023-07-20T04:36:02;96889.44;;;13.79;100.00
55032;BME280;40928;51.076;7.950;2023-07-20T04:38:03;96895.63;;;13.74;100.00
55032;BME280;40928;51.076;7.950;2023-07-20T04:40:29;96894.53;;;13.75;100.00
55032;BME280;40928;51.076;7.950;2023-07-20T04:42:55;96895.66;;;13.84;100.00
55032;BME280;40928;51.076;7.950;2023-07-20T04:45:21;96893.25;;;13.88;100.00
55032;BME280;40928;51.076;7.950;2023-07-20T04:47:48;96887.09;;;13.93;100.00
55032;BME280;40928;51.076;7.950;2023-07-20T04:50:17;96888.19;;;13.97;100.00
55032;BME280;40928;51.076;7.950;2023-07-20T04:52:42;96879.06;;;14.03;100.00
55032;BME280;40928;51.076;7.950;2023-07-20T04:55:09;96880.44;;;14.06;100.00
55032;BME280;40928;51.076;7.950;2023-07-20T04:57:36;96878.81;;;14.10;100.00
55032;BME280;40928;51.076;7.950;2023-07-20T05:00:02;96888.78;;;14.14;100.00
55032;BME280;40928;51.076;7.950;2023-07-20T05:02:30;96887.72;;;14.15;100.00
55032;BME280;40928;51.076;7.950;2023-07-20T05:04:57;96881.50;;;14.15;100.00
55032;BME280;40928;51.076;7.950;2023-07-20T05:07:24;96888.22;;;14.18;100.00
55032;BME280;40928;51.076;7.950;2023-07-20T05:09:49;96881.50;;;14.15;100.00
55032;BME280;40928;51.076;7.950;2023-07-20T05:12:16;96881.28;;;14.16;100.00
55032;BME280;40928;51.076;7.950;2023-07-20T05:14:42;96889.06;;;14.23;100.00
55032;BME280;40928;51.076;7.950;2023-07-20T05:17:08;96897.63;;;14.25;100.00
55032;BME280;40928;51.076;7.950;2023-07-20T05:19:33;96895.78;;;14.26;100.00
55032;BME280;40928;51.076;7.950;2023-07-20T05:21:59;96891.75;;;14.28;100.00
55032;BME280;40928;51.076;7.950;2023-07-20T05:24:26;96892.03;;;14.27;100.00
55032;BME280;40928;51.076;7.950;2023-07-20T05:26:52;96888.81;;;14.30;100.00
55032;BME280;40928;51.076;7.950;2023-07-20T05:29:19;96892.03;;;14.32;100.00
55032;BME280;40928;51.076;7.950;2023-07-20T05:31:44;96891.75;;;14.34;100.00
55032;BME280;40928;51.076;7.950;2023-07-20T05:34:10;96891.22;;;14.37;100.00
55032;BME280;40928;51.076;7.950;2023-07-20T05:36:36;96890.97;;;14.38;100.00
55032;BME280;40928;51.076;7.950;2023-07-20T05:39:02;96894.44;;;14.44;100.00
55032;BME280;40928;51.076;7.950;2023-07-20T05:41:28;96888.84;;;14.45;100.00
55032;BME280;40928;51.076;7.950;2023-07-20T05:43:54;96890.44;;;14.46;100.00
55032;BME280;40928;51.076;7.950;2023-07-20T05:46:20;96888.84;;;14.45;100.00
55032;BME280;40928;51.076;7.950;2023-07-20T05:48:45;96896.34;;;14.49;100.00
55032;BME280;40928;51.076;7.950;2023-07-20T05:51:11;96898.50;;;14.52;100.00
55032;BME280;40928;51.076;7.950;2023-07-20T05:53:39;96893.13;;;14.52;100.00
55032;BME280;40928;51.076;7.950;2023-07-20T05:56:05;96886.94;;;14.56;100.00
55032;BME280;40928;51.076;7.950;2023-07-20T05:58:31;96895.84;;;14.62;100.00
55032;BME280;40928;51.076;7.950;2023-07-20T06:00:57;96899.56;;;14.66;100.00
55032;BME280;40928;51.076;7.950;2023-07-20T06:03:23;96897.19;;;14.75;100.00
55032;BME280;40928;51.076;7.950;2023-07-20T06:05:49;96888.59;;;14.83;100.00
55032;BME280;40928;51.076;7.950;2023-07-20T06:08:15;96901.25;;;14.77;100.00
55032;BME280;40928;51.076;7.950;2023-07-20T06:10:41;96904.19;;;14.76;100.00
55032;BME280;40928;51.076;7.950;2023-07-20T06:13:06;96898.56;;;14.77;100.00
55032;BME280;40928;51.076;7.950;2023-07-20T06:15:33;96907.69;;;14.76;100.00
55032;BME280;40928;51.076;7.950;2023-07-20T06:18:01;96915.22;;;14.74;100.00
55032;BME280;40928;51.076;7.950;2023-07-20T06:20:27;96918.97;;;14.79;100.00
55032;BME280;40928;51.076;7.950;2023-07-20T06:22:53;96922.22;;;14.91;100.00
55032;BME280;40928;51.076;7.950;2023-07-20T06:25:19;96921.91;;;14.92;100.00
55032;BME280;40928;51.076;7.950;2023-07-20T06:27:46;96927.84;;;14.95;100.00
55032;BME280;40928;51.076;7.950;2023-07-20T06:30:12;96917.09;;;14.95;100.00
55032;BME280;40928;51.076;7.950;2023-07-20T06:32:38;96911.16;;;14.92;100.00
55032;BME280;40928;51.076;7.950;2023-07-20T06:35:05;96920.59;;;15.05;100.00
55032;BME280;40928;51.076;7.950;2023-07-20T06:37:31;96917.91;;;15.05;100.00
55032;BME280;40928;51.076;7.950;2023-07-20T06:39:58;96915.19;;;15.11;100.00
55032;BME280;40928;51.076;7.950;2023-07-20T06:42:25;96919.50;;;15.17;100.00
55032;BME280;40928;51.076;7.950;2023-07-20T06:44:52;96918.97;;;15.10;100.00
55032;BME280;40928;51.076;7.950;2023-07-20T06:47:18;96926.47;;;15.13;100.00
55032;BME280;40928;51.076;7.950;2023-07-20T06:49:44;96922.97;;;15.22;100.00
55032;BME280;40928;51.076;7.950;2023-07-20T06:52:09;96918.38;;;15.28;100.00
55032;BME280;40928;51.076;7.950;2023-07-20T06:54:35;96926.50;;;15.23;100.00
55032;BME280;40928;51.076;7.950;2023-07-20T06:57:01;96920.28;;;15.22;100.00
55032;BME280;40928;51.076;7.950;2023-07-20T06:59:27;96924.88;;;15.12;100.00
55032;BME280;40928;51.076;7.950;2023-07-20T07:01:53;96929.44;;;15.06;100.00
55032;BME280;40928;51.076;7.950;2023-07-20T07:04:19;96924.88;;;15.01;100.00
55032;BME280;40928;51.076;7.950;2023-07-20T07:06:45;96930.25;;;15.06;100.00
55032;BME280;40928;51.076;7.950;2023-07-20T07:09:10;96934.53;;;15.13;100.00
55032;BME280;40928;51.076;7.950;2023-07-20T07:11:36;96942.06;;;15.11;100.00
55032;BME280;40928;51.076;7.950;2023-07-20T07:14:02;96928.09;;;15.14;100.00
55032;BME280;40928;51.076;7.950;2023-07-20T07:16:27;96936.16;;;15.24;100.00
55032;BME280;40928;51.076;7.950;2023-07-20T07:18:53;96938.00;;;15.34;100.00
55032;BME280;40928;51.076;7.950;2023-07-20T07:21:19;96938.84;;;15.40;100.00
55032;BME280;40928;51.076;7.950;2023-07-20T07:23:45;96940.97;;;15.48;100.00
55032;BME280;40928;51.076;7.950;2023-07-20T07:26:11;96940.16;;;15.42;100.00
55032;BME280;40928;51.076;7.950;2023-07-20T07:28:37;96940.16;;;15.47;100.00
55032;BME280;40928;51.076;7.950;2023-07-20T07:31:06;96940.69;;;15.49;100.00
55032;BME280;40928;51.076;7.950;2023-07-20T07:33:33;96948.50;;;15.56;100.00
55032;BME280;40928;51.076;7.950;2023-07-20T07:35:59;96951.16;;;15.61;100.00
55032;BME280;40928;51.076;7.950;2023-07-20T07:38:25;96945.22;;;15.64;100.00
55032;BME280;40928;51.076;7.950;2023-07-20T07:40:51;96955.16;;;15.69;100.00
55032;BME280;40928;51.076;7.950;2023-07-20T07:43:17;96959.47;;;15.65;100.00
55032;BME280;40928;51.076;7.950;2023-07-20T07:45:43;96961.13;;;15.61;100.00
55032;BME280;40928;51.076;7.950;2023-07-20T07:48:09;96959.22;;;15.66;100.00
55032;BME280;40928;51.076;7.950;2023-07-20T07:50:38;96963.78;;;15.76;100.00
55032;BME280;40928;51.076;7.950;2023-07-20T07:53:06;96965.09;;;15.79;100.00
55032;BME280;40928;51.076;7.950;2023-07-20T07:55:32;96964.81;;;15.80;100.00
55032;BME280;40928;51.076;7.950;2023-07-20T07:57:58;96962.41;;;15.84;100.00
55032;BME280;40928;51.076;7.950;2023-07-20T08:00:24;96967.56;;;15.70;100.00
55032;BME280;40928;51.076;7.950;2023-07-20T08:02:50;96965.69;;;15.71;100.00
55032;BME280;40928;51.076;7.950;2023-07-20T08:05:16;96971.06;;;15.86;100.00
55032;BME280;40928;51.076;7.950;2023-07-20T08:07:42;96970.47;;;16.00;100.00
55032;BME280;40928;51.076;7.950;2023-07-20T08:10:09;96972.81;;;16.17;100.00
55032;BME280;40928;51.076;7.950;2023-07-20T08:12:35;96972.50;;;16.28;100.00
55032;BME280;40928;51.076;7.950;2023-07-20T08:15:01;96966.50;;;16.37;100.00
55032;BME280;40928;51.076;7.950;2023-07-20T08:17:27;96970.81;;;16.38;100.00
55032;BME280;40928;51.076;7.950;2023-07-20T08:19:52;96969.72;;;16.39;100.00
55032;BME280;40928;51.076;7.950;2023-07-20T08:22:18;96968.13;;;16.38;100.00
55032;BME280;40928;51.076;7.950;2023-07-20T08:24:44;96973.25;;;16.39;100.00
55032;BME280;40928;51.076;7.950;2023-07-20T08:27:10;96975.72;;;16.25;100.00
55032;BME280;40928;51.076;7.950;2023-07-20T08:29:36;96977.91;;;16.23;100.00
55032;BME280;40928;51.076;7.950;2023-07-20T08:32:03;96974.41;;;16.18;100.00
55032;BME280;40928;51.076;7.950;2023-07-20T08:34:30;96975.25;;;16.08;100.00
55032;BME280;40928;51.076;7.950;2023-07-20T08:36:56;96988.47;;;16.09;100.00
55032;BME280;40928;51.076;7.950;2023-07-20T08:39:23;96984.44;;;16.07;100.00
55032;BME280;40928;51.076;7.950;2023-07-20T08:41:49;96985.50;;;16.11;100.00
55032;BME280;40928;51.076;7.950;2023-07-20T08:44:17;96986.03;;;16.13;100.00
55032;BME280;40928;51.076;7.950;2023-07-20T08:46:43;96980.59;;;16.23;100.00
55032;BME280;40928;51.076;7.950;2023-07-20T08:49:11;96982.69;;;16.37;100.00
55032;BME280;40928;51.076;7.950;2023-07-20T08:51:37;96992.88;;;16.50;100.00
55032;BME280;40928;51.076;7.950;2023-07-20T08:54:03;96989.88;;;16.57;100.00
55032;BME280;40928;51.076;7.950;2023-07-20T08:56:31;96998.19;;;16.61;100.00
55032;BME280;40928;51.076;7.950;2023-07-20T08:58:59;96999.25;;;16.65;100.00
55032;BME280;40928;51.076;7.950;2023-07-20T09:01:28;96994.63;;;16.70;100.00
55032;BME280;40928;51.076;7.950;2023-07-20T09:03:54;96990.25;;;16.80;100.00
55032;BME280;40928;51.076;7.950;2023-07-20T09:06:21;96986.16;;;16.87;100.00
55032;BME280;40928;51.076;7.950;2023-07-20T09:08:46;96987.53;;;16.85;100.00
55032;BME280;40928;51.076;7.950;2023-07-20T09:11:14;96992.16;;;16.79;100.00
55032;BME280;40928;51.076;7.950;2023-07-20T09:13:40;96990.25;;;16.80;100.00
55032;BME280;40928;51.076;7.950;2023-07-20T09:16:06;96988.63;;;16.79;100.00
55032;BME280;40928;51.076;7.950;2023-07-20T09:18:32;96989.25;;;16.70;100.00
55032;BME280;40928;51.076;7.950;2023-07-20T09:21:05;96994.41;;;16.62;100.00
55032;BME280;40928;51.076;7.950;2023-07-20T09:23:36;96998.75;;;16.57;100.00
55032;BME280;40928;51.076;7.950;2023-07-20T09:26:13;96994.13;;;16.63;100.00
55032;BME280;40928;51.076;7.950;2023-07-20T09:31:29;96990.50;;;16.83;100.00
55032;BME280;40928;51.076;7.950;2023-07-20T09:34:04;96985.84;;;16.94;100.00
55032;BME280;40928;51.076;7.950;2023-07-20T09:36:35;96993.53;;;17.16;100.00
55032;BME280;40928;51.076;7.950;2023-07-20T09:39:12;96991.19;;;17.39;100.00
55032;BME280;40928;51.076;7.950;2023-07-20T09:41:41;96981.75;;;17.66;100.00
55032;BME280;40928;51.076;7.950;2023-07-20T09:44:10;96988.47;;;17.93;100.00
55032;BME280;40928;51.076;7.950;2023-07-20T09:46:49;96987.69;;;17.92;100.00
55032;BME280;40928;51.076;7.950;2023-07-20T09:49:17;96989.44;;;17.54;100.00
55032;BME280;40928;51.076;7.950;2023-07-20T09:51:44;96992.94;;;17.25;100.00
55032;BME280;40928;51.076;7.950;2023-07-20T09:54:11;96996.50;;;17.15;100.00
55032;BME280;40928;51.076;7.950;2023-07-20T09:56:39;96991.97;;;17.10;100.00
55032;BME280;40928;51.076;7.950;2023-07-20T09:59:06;96989.38;;;16.95;100.00
55032;BME280;40928;51.076;7.950;2023-07-20T10:01:34;96998.25;;;16.90;100.00
55032;BME280;40928;51.076;7.950;2023-07-20T10:04:02;96995.88;;;16.83;100.00
55032;BME280;40928;51.076;7.950;2023-07-20T10:06:39;96992.09;;;16.84;100.00
55032;BME280;40928;51.076;7.950;2023-07-20T10:09:07;96987.53;;;16.85;100.00
55032;BME280;40928;51.076;7.950;2023-07-20T10:11:36;96984.22;;;16.98;100.00
55032;BME280;40928;51.076;7.950;2023-07-20T10:14:04;96992.50;;;17.12;100.00
55032;BME280;40928;51.076;7.950;2023-07-20T10:16:39;96986.94;;;16.98;100.00
55032;BME280;40928;51.076;7.950;2023-07-20T10:21:54;96983.88;;;17.10;100.00
55032;BME280;40928;51.076;7.950;2023-07-20T10:24:21;96975.88;;;17.29;100.00
55032;BME280;40928;51.076;7.950;2023-07-20T10:26:48;96986.25;;;17.46;100.00
55032;BME280;40928;51.076;7.950;2023-07-20T10:29:14;96972.38;;;17.58;100.00
55032;BME280;40928;51.076;7.950;2023-07-20T10:31:41;96980.81;;;17.52;100.00
55032;BME280;40928;51.076;7.950;2023-07-20T10:34:07;96985.81;;;17.63;100.00
55032;BME280;40928;51.076;7.950;2023-07-20T10:36:43;96978.59;;;17.59;99.07
55032;BME280;40928;51.076;7.950;2023-07-20T10:39:22;96977.78;;;17.58;97.53
55032;BME280;40928;51.076;7.950;2023-07-20T10:41:49;96981.56;;;17.57;100.00
55032;BME280;40928;51.076;7.950;2023-07-20T10:44:19;96977.06;;;17.47;96.58
55032;BME280;40928;51.076;7.950;2023-07-20T10:46:46;96985.16;;;17.47;98.20
55032;BME280;40928;51.076;7.950;2023-07-20T10:49:13;96981.44;;;17.43;99.47
55032;BME280;40928;51.076;7.950;2023-07-20T10:51:43;96977.31;;;17.51;99.35
55032;BME280;40928;51.076;7.950;2023-07-20T10:56:42;96979.16;;;17.56;95.59
55032;BME280;40928;51.076;7.950;2023-07-20T10:59:18;96975.63;;;17.85;95.98
55032;BME280;40928;51.076;7.950;2023-07-20T11:01:48;96983.63;;;18.38;93.26
55032;BME280;40928;51.076;7.950;2023-07-20T11:04:16;96974.44;;;18.78;87.43
55032;BME280;40928;51.076;7.950;2023-07-20T11:06:46;96970.84;;;19.21;84.84
55032;BME280;40928;51.076;7.950;2023-07-20T11:09:22;96968.31;;;19.57;81.29
55032;BME280;40928;51.076;7.950;2023-07-20T11:12:17;96983.69;;;19.76;72.96
55032;BME280;40928;51.076;7.950;2023-07-20T11:14:43;96977.84;;;19.69;70.94
55032;BME280;40928;51.076;7.950;2023-07-20T11:17:14;96975.63;;;19.57;69.04
55032;BME280;40928;51.076;7.950;2023-07-20T11:19:40;96976.84;;;19.65;69.45
55032;BME280;40928;51.076;7.950;2023-07-20T11:22:07;96973.53;;;19.54;69.77
55032;BME280;40928;51.076;7.950;2023-07-20T11:24:39;96971.19;;;19.47;66.98
55032;BME280;40928;51.076;7.950;2023-07-20T11:27:06;96962.50;;;19.17;65.37
55032;BME280;40928;51.076;7.950;2023-07-20T11:29:31;96961.84;;;19.25;67.64
55032;BME280;40928;51.076;7.950;2023-07-20T11:31:57;96964.06;;;19.37;69.20
55032;BME280;40928;51.076;7.950;2023-07-20T11:34:26;96962.34;;;19.27;69.83
55032;BME280;40928;51.076;7.950;2023-07-20T11:36:52;96966.44;;;19.25;70.89
55032;BME280;40928;51.076;7.950;2023-07-20T11:39:19;96963.97;;;19.09;74.29
55032;BME280;40928;51.076;7.950;2023-07-20T11:41:52;96962.38;;;19.08;76.38
55032;BME280;40928;51.076;7.950;2023-07-20T11:44:19;96967.00;;;19.08;76.34
55032;BME280;40928;51.076;7.950;2023-07-20T11:46:46;96963.59;;;19.16;77.30
55032;BME280;40928;51.076;7.950;2023-07-20T11:49:12;96965.69;;;19.38;76.97
55032;BME280;40928;51.076;7.950;2023-07-20T11:51:40;96962.09;;;19.71;75.54
55032;BME280;40928;51.076;7.950;2023-07-20T11:54:07;96966.38;;;20.05;73.76
55032;BME280;40928;51.076;7.950;2023-07-20T11:56:34;96964.63;;;20.37;70.88
55032;BME280;40928;51.076;7.950;2023-07-20T11:59:00;96951.91;;;20.60;71.09
55032;BME280;40928;51.076;7.950;2023-07-20T12:04:01;96951.78;;;21.02;66.29
55032;BME280;40928;51.076;7.950;2023-07-20T12:06:30;96964.00;;;21.13;65.78
55032;BME280;40928;51.076;7.950;2023-07-20T12:08:57;96963.56;;;20.97;65.09
55032;BME280;40928;51.076;7.950;2023-07-20T12:11:50;96962.44;;;20.98;64.71
55032;BME280;40928;51.076;7.950;2023-07-20T12:14:16;96961.09;;;20.87;64.31
55032;BME280;40928;51.076;7.950;2023-07-20T12:16:42;96971.16;;;20.36;66.84
55032;BME280;40928;51.076;7.950;2023-07-20T12:19:10;96968.66;;;20.12;67.83
55032;BME280;40928;51.076;7.950;2023-07-20T12:21:38;96968.16;;;19.96;69.02
55032;BME280;40928;51.076;7.950;2023-07-20T12:24:06;96971.84;;;19.86;70.60
55032;BME280;40928;51.076;7.950;2023-07-20T12:26:33;96968.03;;;19.73;71.46
55032;BME280;40928;51.076;7.950;2023-07-20T12:28:59;96979.16;;;19.71;71.55
55032;BME280;40928;51.076;7.950;2023-07-20T12:31:26;96966.50;;;19.53;72.77
55032;BME280;40928;51.076;7.950;2023-07-20T12:33:53;96963.69;;;19.44;71.23
55032;BME280;40928;51.076;7.950;2023-07-20T12:36:20;96967.38;;;19.01;73.32
55032;BME280;40928;51.076;7.950;2023-07-20T12:38:46;96973.88;;;19.00;72.73
55032;BME280;40928;51.076;7.950;2023-07-20T12:41:13;96956.63;;;18.96;72.72
55032;BME280;40928;51.076;7.950;2023-07-20T12:43:43;96957.19;;;19.12;72.26
55032;BME280;40928;51.076;7.950;2023-07-20T12:46:11;96958.53;;;19.28;71.76
55032;BME280;40928;51.076;7.950;2023-07-20T12:48:37;96951.31;;;19.38;69.95
55032;BME280;40928;51.076;7.950;2023-07-20T12:51:04;96949.31;;;19.29;68.18
55032;BME280;40928;51.076;7.950;2023-07-20T12:53:31;96951.72;;;19.31;67.54
55032;BME280;40928;51.076;7.950;2023-07-20T12:55:58;96952.47;;;19.51;68.97
55032;BME280;40928;51.076;7.950;2023-07-20T12:58:23;96952.06;;;19.71;67.74
55032;BME280;40928;51.076;7.950;2023-07-20T13:00:49;96950.47;;;19.84;66.89
55032;BME280;40928;51.076;7.950;2023-07-20T13:03:15;96952.41;;;19.98;67.85
55032;BME280;40928;51.076;7.950;2023-07-20T13:05:41;96946.47;;;20.10;65.18
55032;BME280;40928;51.076;7.950;2023-07-20T13:08:07;96949.09;;;19.87;63.20
55032;BME280;40928;51.076;7.950;2023-07-20T13:10:33;96950.47;;;19.84;62.95